Messwerte Ondangwa

Temperatur

Temperatur
°C
1574179200 18.00 18.00 35
1574182800 19.00 19.00 33
1574186400 20.00 20.00 32
1574190000 21.00 21.00 28
1574193600 22.00 22.00 27
1574197200 23.00 23.00 27
1574200800 0.00 0.00
1574204400 1.00 1.00
1574208000 2.00 2.00
1574211600 3.00 3.00
1574215200 4.00 4.00
1574218800 5.00 5.00
1574222400 6.00 6.00
1574226000 7.00 7.00 22
1574229600 8.00 8.00 24
1574233200 9.00 9.00 26
1574236800 10.00 10.00 28
1574240400 11.00 11.00 30
1574244000 12.00 12.00 32
1574247600 13.00 13.00
1574251200 14.00 14.00 34
1574254800 15.00 15.00 35
1574258400 16.00 16.00 36
1574262000 17.00 17.00 35

Aktuellste Messwerte

Wettercharakter
Wetter: recht sonnig
Temperatur
35 °C
Feuchtigkeit
10 %
Wind
10 km/hWindrichtung: West
Luftdruck
1010 hPa
Messzeit: 20. November 2019, 17.00Datenquelle: METAR

Weitere Messstationen in der Nähe

Messstation Temperatur Entfernung
Okaukuejo - 139 km
Otjiwarongo - 287 km
Rundu - 401 km

Wind

Windrichtung Böen Mittelwind
° km/h km/h
1574179200 18.00 17.00 - 18.00 270° 20
1574182800 19.00 18.00 - 19.00 290° 10
1574186400 20.00 19.00 - 20.00 260° 5
1574190000 21.00 20.00 - 21.00 60° 5
1574193600 22.00 21.00 - 22.00 360° 5
1574197200 23.00 22.00 - 23.00 310° 5
1574200800 0.00 23.00 - 0.00
1574204400 1.00 0.00 - 1.00
1574208000 2.00 1.00 - 2.00
1574211600 3.00 2.00 - 3.00
1574215200 4.00 3.00 - 4.00
1574218800 5.00 4.00 - 5.00
1574222400 6.00 5.00 - 6.00
1574226000 7.00 6.00 - 7.00 0
1574229600 8.00 7.00 - 8.00 300° 10
1574233200 9.00 8.00 - 9.00 210° 15
1574236800 10.00 9.00 - 10.00 0
1574240400 11.00 10.00 - 11.00 140° 10
1574244000 12.00 11.00 - 12.00 200° 5
1574247600 13.00 12.00 - 13.00
1574251200 14.00 13.00 - 14.00 240° 15
1574254800 15.00 14.00 - 15.00 0
1574258400 16.00 15.00 - 16.00 300° 5
1574262000 17.00 16.00 - 17.00 290° 10

Ihre Wetterstation

Fehlt Ihre Wetterstation auf unserem Portal?

Schreiben Sie an network@meteonews.ch